Time;durP1;ratioP1;P1;durP2;ratioP2;P2;SDS_P1;SDS_P2;PMS_P1;PMS_P2;Temp;Humidity;BMP_temperature;BMP_pressure;BME280_temperature;BME280_humidity;BME280_pressure;Samples;Min_cycle;Max_cycle;Signal;HPM_P1;HPM_P2
2023/05/17 00:00:58;;;;;;;3.97;1.87;;;9.90;1.00;;;;;;5064581;28;20466;-54
2023/05/17 00:03:23;;;;;;;2.87;1.87;;;10.00;1.00;;;;;;5070315;28;20477;-55
2023/05/17 00:05:49;;;;;;;3.00;1.97;;;10.10;1.00;;;;;;5064003;28;20187;-55
2023/05/17 00:08:15;;;;;;;1.93;1.60;;;10.10;1.00;;;;;;5061462;28;20192;-56
2023/05/17 00:10:40;;;;;;;5.10;2.13;;;9.90;1.00;;;;;;5073948;28;20226;-56
2023/05/17 00:13:06;;;;;;;2.33;1.40;;;10.00;1.00;;;;;;5067574;28;20254;-54
2023/05/17 00:15:32;;;;;;;4.13;1.70;;;10.00;1.00;;;;;;5064643;28;20189;-56
2023/05/17 00:17:57;;;;;;;5.13;2.30;;;10.00;1.00;;;;;;5068820;28;20241;-55
2023/05/17 00:20:23;;;;;;;7.70;2.17;;;10.10;1.00;;;;;;5065714;28;20241;-56
2023/05/17 00:22:48;;;;;;;2.63;1.70;;;10.00;1.00;;;;;;5069936;28;20279;-55
2023/05/17 00:25:14;;;;;;;2.53;1.50;;;10.00;1.00;;;;;;5062914;28;20518;-56
2023/05/17 00:27:40;;;;;;;2.83;1.70;;;9.90;1.00;;;;;;5075956;28;20223;-55
2023/05/17 00:30:06;;;;;;;2.90;1.77;;;9.90;1.00;;;;;;5072230;28;20195;-55
2023/05/17 00:32:32;;;;;;;3.53;1.87;;;9.90;1.00;;;;;;5074641;28;20204;-54
2023/05/17 00:34:57;;;;;;;4.93;1.80;;;9.90;1.00;;;;;;5070558;28;20459;-56
2023/05/17 00:37:23;;;;;;;3.33;1.80;;;9.90;1.00;;;;;;5070751;28;20192;-55
2023/05/17 00:39:48;;;;;;;3.10;1.37;;;9.80;1.00;;;;;;5054853;28;20234;-55
2023/05/17 00:42:14;;;;;;;3.67;1.80;;;9.90;1.00;;;;;;5054793;28;20190;-54
2023/05/17 00:44:40;;;;;;;2.43;1.57;;;9.80;1.00;;;;;;5055922;28;20188;-54
2023/05/17 00:47:06;;;;;;;3.73;1.83;;;9.80;1.00;;;;;;5056370;28;20282;-55
2023/05/17 00:49:32;;;;;;;2.37;1.27;;;9.70;1.00;;;;;;5054025;28;20180;-56
2023/05/17 00:51:58;;;;;;;2.83;1.50;;;9.70;1.00;;;;;;5053385;28;20204;-55
2023/05/17 00:54:25;;;;;;;3.17;2.10;;;9.60;1.00;;;;;;5055170;28;20542;-56
2023/05/17 00:56:51;;;;;;;2.93;1.53;;;9.50;1.00;;;;;;5052474;28;20496;-55
2023/05/17 00:59:18;;;;;;;7.50;1.70;;;9.50;1.00;;;;;;5054655;28;20453;-56
2023/05/17 01:01:44;;;;;;;2.23;1.20;;;9.50;1.00;;;;;;5053041;28;20963;-54
2023/05/17 01:04:10;;;;;;;4.83;1.90;;;9.70;1.00;;;;;;5053595;28;20816;-55
2023/05/17 01:06:36;;;;;;;3.63;1.50;;;9.70;1.00;;;;;;5054666;28;20442;-55
2023/05/17 01:09:02;;;;;;;3.80;1.70;;;9.60;1.00;;;;;;5053228;28;20188;-53
2023/05/17 01:11:51;;;;;;;3.23;1.90;;;9.60;1.00;;;;;;5067511;28;20450;-55
2023/05/17 01:14:36;;;;;;;2.53;1.43;;;9.50;1.00;;;;;;5076526;28;20469;-54
2023/05/17 01:17:06;;;;;;;3.47;1.47;;;9.60;1.00;;;;;;5069527;28;20858;-54
2023/05/17 01:19:43;;;;;;;4.87;2.43;;;9.60;1.00;;;;;;5073730;28;20540;-54
2023/05/17 01:22:32;;;;;;;3.07;1.50;;;9.60;1.00;;;;;;5065847;28;20437;-55
2023/05/17 01:25:11;;;;;;;3.13;1.60;;;9.50;1.00;;;;;;5070501;28;20450;-55
2023/05/17 01:27:40;;;;;;;1.93;1.77;;;9.60;1.00;;;;;;5061856;28;20538;-54
2023/05/17 01:30:09;;;;;;;2.87;1.67;;;9.50;1.00;;;;;;5079293;28;20561;-55
2023/05/17 01:32:35;;;;;;;5.50;2.10;;;9.50;1.00;;;;;;5064831;28;20521;-55
2023/05/17 01:35:04;;;;;;;4.60;1.33;;;9.50;1.00;;;;;;5065596;28;20488;-53
2023/05/17 01:37:29;;;;;;;4.60;1.53;;;9.40;1.00;;;;;;5063863;28;20757;-54
2023/05/17 01:39:55;;;;;;;4.53;1.57;;;9.40;1.00;;;;;;5068610;28;20482;-55
2023/05/17 01:42:31;;;;;;;4.73;1.73;;;9.50;1.00;;;;;;5076598;28;20203;-54
2023/05/17 01:45:14;;;;;;;5.20;1.93;;;9.40;1.00;;;;;;5057491;28;20224;-57
2023/05/17 01:47:45;;;;;;;3.07;1.67;;;9.50;1.00;;;;;;5064216;28;20835;-56
2023/05/17 01:50:14;;;;;;;3.67;1.80;;;9.40;1.00;;;;;;5060483;28;20505;-54
2023/05/17 01:52:54;;;;;;;5.80;1.50;;;9.40;1.00;;;;;;5070881;28;20445;-56
2023/05/17 01:55:41;;;;;;;2.20;1.37;;;9.20;1.00;;;;;;5076538;28;20443;-55
2023/05/17 01:58:09;;;;;;;3.23;1.30;;;9.30;1.00;;;;;;5064082;28;21010;-56
2023/05/17 02:00:37;;;;;;;3.70;1.40;;;9.20;1.00;;;;;;5073957;28;20474;-54
2023/05/17 02:03:03;;;;;;;5.30;2.00;;;9.20;1.00;;;;;;5064562;28;20447;-55
2023/05/17 02:05:28;;;;;;;4.07;1.40;;;9.20;1.00;;;;;;5070844;28;20524;-55
2023/05/17 02:07:54;;;;;;;7.80;2.03;;;9.20;1.00;;;;;;5058801;28;20192;-54
2023/05/17 02:10:20;;;;;;;4.23;1.90;;;9.20;1.00;;;;;;5072122;28;20181;-55
2023/05/17 02:12:45;;;;;;;3.63;1.80;;;9.10;1.00;;;;;;5069557;28;20216;-56
2023/05/17 02:15:12;;;;;;;1.80;1.20;;;9.10;1.00;;;;;;5071669;28;20195;-56
2023/05/17 02:17:39;;;;;;;2.67;1.90;;;9.00;1.00;;;;;;5056710;28;20199;-55
2023/05/17 02:20:07;;;;;;;2.80;1.57;;;9.00;1.00;;;;;;5063939;28;20450;-56
2023/05/17 02:22:32;;;;;;;5.30;1.80;;;9.00;1.00;;;;;;5065764;28;20775;-55
2023/05/17 02:24:58;;;;;;;5.83;1.70;;;9.00;1.00;;;;;;5066117;28;20446;-55
2023/05/17 02:27:23;;;;;;;6.40;1.93;;;9.10;1.00;;;;;;5064325;28;20218;-54
2023/05/17 02:29:49;;;;;;;2.00;1.60;;;9.00;1.00;;;;;;5059721;28;20904;-55
2023/05/17 02:32:15;;;;;;;3.03;2.27;;;9.00;1.00;;;;;;5067400;28;20201;-55
2023/05/17 02:34:40;;;;;;;4.70;2.40;;;9.00;1.00;;;;;;5066745;28;20246;-54
2023/05/17 02:37:06;;;;;;;3.30;1.70;;;9.00;1.00;;;;;;5052462;28;20229;-55
2023/05/17 02:39:32;;;;;;;4.07;1.73;;;8.90;1.00;;;;;;5053876;28;20199;-55
2023/05/17 02:41:58;;;;;;;2.50;1.67;;;8.90;1.00;;;;;;5054132;28;20195;-54
2023/05/17 02:44:24;;;;;;;6.40;2.23;;;8.90;1.00;;;;;;5053560;28;20454;-54
2023/05/17 02:46:49;;;;;;;3.07;1.90;;;8.90;1.00;;;;;;5053474;28;20187;-55
2023/05/17 02:49:15;;;;;;;2.97;1.90;;;8.90;1.00;;;;;;5055082;28;20187;-56
2023/05/17 02:51:40;;;;;;;3.90;2.50;;;9.00;1.00;;;;;;5051941;28;20200;-55
2023/05/17 02:54:06;;;;;;;4.57;2.20;;;8.90;1.00;;;;;;5056623;28;20211;-54
2023/05/17 02:56:32;;;;;;;3.17;1.77;;;8.90;1.00;;;;;;5053739;28;20743;-53
2023/05/17 02:59:00;;;;;;;6.27;2.40;;;9.00;1.00;;;;;;5055182;28;20471;-55
2023/05/17 03:01:26;;;;;;;5.17;2.53;;;8.90;1.00;;;;;;5053953;28;20493;-54
2023/05/17 03:03:52;;;;;;;4.73;2.40;;;8.90;1.00;;;;;;5054111;28;20458;-54
2023/05/17 03:06:18;;;;;;;5.10;2.10;;;8.90;1.00;;;;;;5052386;28;20455;-53
2023/05/17 03:08:43;;;;;;;6.90;2.67;;;8.90;1.00;;;;;;5058138;28;20823;-53
2023/05/17 03:11:09;;;;;;;5.30;2.10;;;8.90;1.00;;;;;;5064106;28;20742;-55
2023/05/17 03:13:35;;;;;;;4.70;2.27;;;8.70;1.00;;;;;;5067753;28;20633;-55
2023/05/17 03:16:00;;;;;;;6.40;3.00;;;8.70;1.00;;;;;;5071095;28;20678;-55
2023/05/17 03:18:26;;;;;;;5.70;2.63;;;8.80;1.00;;;;;;5073130;28;20188;-55
2023/05/17 03:20:51;;;;;;;3.60;2.40;;;8.70;1.00;;;;;;5068593;28;20668;-56
2023/05/17 03:23:17;;;;;;;3.20;2.00;;;8.70;1.00;;;;;;5071965;28;20193;-55
2023/05/17 03:25:43;;;;;;;4.53;2.80;;;8.70;1.00;;;;;;5066582;28;20186;-54
2023/05/17 03:28:08;;;;;;;7.57;2.40;;;8.80;1.00;;;;;;5065071;28;20188;-54
2023/05/17 03:30:34;;;;;;;4.10;2.30;;;8.70;1.00;;;;;;5067694;28;20529;-56
2023/05/17 03:33:00;;;;;;;6.10;2.77;;;8.80;1.00;;;;;;5070396;28;20238;-54
2023/05/17 03:35:25;;;;;;;3.47;2.03;;;8.80;1.00;;;;;;5066407;28;20472;-55
2023/05/17 03:37:51;;;;;;;7.00;3.20;;;8.80;1.00;;;;;;5074945;28;20180;-55
2023/05/17 03:40:17;;;;;;;4.67;2.37;;;8.60;1.00;;;;;;5073378;28;20180;-55
2023/05/17 03:42:42;;;;;;;3.57;3.13;;;8.70;1.00;;;;;;5069416;28;20625;-55
2023/05/17 03:45:08;;;;;;;10.03;3.90;;;8.80;1.00;;;;;;5068065;28;20325;-54
2023/05/17 03:47:34;;;;;;;4.43;2.93;;;8.70;1.00;;;;;;5069142;28;20191;-54
2023/05/17 03:49:59;;;;;;;5.67;3.47;;;8.70;1.00;;;;;;5072584;28;20443;-56
2023/05/17 03:52:25;;;;;;;6.40;2.50;;;8.80;1.00;;;;;;5070984;28;20187;-55
2023/05/17 03:54:51;;;;;;;5.20;2.87;;;8.80;1.00;;;;;;5066657;28;20273;-54
2023/05/17 03:57:18;;;;;;;4.47;2.80;;;8.80;1.00;;;;;;5069873;28;20708;-54
2023/05/17 03:59:44;;;;;;;7.13;2.87;;;8.90;1.00;;;;;;5065972;28;20583;-54
2023/05/17 04:02:10;;;;;;;5.30;2.70;;;8.90;1.00;;;;;;5067750;28;20493;-54
2023/05/17 04:04:36;;;;;;;6.57;3.00;;;8.90;1.00;;;;;;5067264;28;20438;-55
2023/05/17 04:07:01;;;;;;;5.73;2.90;;;8.90;1.00;;;;;;5068509;28;20187;-53
2023/05/17 04:09:27;;;;;;;5.23;2.57;;;8.90;1.00;;;;;;5075603;28;20198;-55
2023/05/17 04:11:53;;;;;;;4.77;2.37;;;8.90;1.00;;;;;;5073637;28;20233;-53
2023/05/17 04:14:18;;;;;;;6.23;2.90;;;8.80;1.00;;;;;;5068300;28;20216;-54
2023/05/17 04:16:44;;;;;;;5.60;2.50;;;8.90;1.00;;;;;;5066695;28;20517;-54
2023/05/17 04:19:09;;;;;;;8.53;3.17;;;8.90;1.00;;;;;;5076643;28;20195;-55
2023/05/17 04:21:35;;;;;;;4.47;2.70;;;9.10;1.00;;;;;;5067581;28;20188;-54
2023/05/17 04:24:01;;;;;;;4.17;2.93;;;9.10;1.00;;;;;;5078491;28;20188;-55
2023/05/17 04:26:26;;;;;;;7.40;2.87;;;9.40;1.00;;;;;;5064794;28;20272;-54
2023/05/17 04:28:52;;;;;;;6.80;3.60;;;9.60;1.00;;;;;;5077254;28;20199;-54
2023/05/17 04:31:18;;;;;;;6.40;3.93;;;9.70;1.00;;;;;;5064956;28;20203;-55
2023/05/17 04:33:43;;;;;;;4.17;2.60;;;9.90;1.00;;;;;;5063350;28;20733;-57
2023/05/17 04:36:09;;;;;;;5.87;3.00;;;9.90;1.00;;;;;;5070597;28;20645;-54
2023/05/17 04:38:34;;;;;;;4.80;3.37;;;10.10;1.00;;;;;;5071216;28;20246;-54
2023/05/17 04:41:03;;;;;;;6.93;3.30;;;10.20;1.00;;;;;;5058236;28;20195;-55
2023/05/17 04:43:29;;;;;;;7.20;3.60;;;10.20;1.00;;;;;;5057283;28;20184;-53
2023/05/17 04:45:56;;;;;;;7.17;2.73;;;10.30;1.00;;;;;;5054034;28;20512;-54
2023/05/17 04:48:22;;;;;;;8.20;2.43;;;10.40;1.00;;;;;;5055654;28;20529;-55
2023/05/17 04:50:48;;;;;;;4.10;3.07;;;10.50;1.00;;;;;;5065207;28;20537;-56
2023/05/17 04:53:14;;;;;;;5.10;2.70;;;10.50;1.00;;;;;;5076259;28;20204;-55
2023/05/17 04:55:40;;;;;;;5.00;2.83;;;10.70;1.00;;;;;;5073531;28;20700;-55
2023/05/17 04:58:06;;;;;;;8.63;3.40;;;10.70;1.00;;;;;;5066854;28;20552;-55
2023/05/17 05:00:31;;;;;;;4.67;3.37;;;10.90;1.00;;;;;;5065675;28;20218;-56
2023/05/17 05:02:57;;;;;;;4.03;2.50;;;10.90;1.00;;;;;;5065956;28;20190;-55
2023/05/17 05:05:24;;;;;;;5.50;3.03;;;11.10;1.00;;;;;;5053213;28;20193;-55
2023/05/17 05:07:50;;;;;;;4.67;2.43;;;11.10;1.00;;;;;;5054289;28;20200;-55
2023/05/17 05:10:15;;;;;;;5.83;2.73;;;11.20;1.00;;;;;;5058047;28;20894;-56
2023/05/17 05:12:41;;;;;;;9.13;2.97;;;11.40;1.00;;;;;;5055317;28;20195;-55
2023/05/17 05:15:08;;;;;;;6.80;3.20;;;11.50;1.00;;;;;;5054631;28;20465;-54
2023/05/17 05:17:33;;;;;;;9.10;3.63;;;11.80;1.00;;;;;;5077865;28;20451;-53
2023/05/17 05:19:59;;;;;;;4.23;3.00;;;11.80;1.00;;;;;;5071738;28;20450;-54
2023/05/17 05:22:24;;;;;;;8.13;3.50;;;11.50;1.00;;;;;;5059715;28;20199;-54
2023/05/17 05:24:50;;;;;;;9.30;3.67;;;11.30;1.00;;;;;;5070930;28;20187;-55
2023/05/17 05:27:16;;;;;;;5.73;3.37;;;11.20;1.00;;;;;;5074655;28;20187;-56
2023/05/17 05:29:42;;;;;;;6.03;3.17;;;11.30;1.00;;;;;;5078734;28;20441;-54
2023/05/17 05:32:07;;;;;;;7.17;4.20;;;11.30;1.00;;;;;;5062462;28;20349;-57
2023/05/17 05:34:33;;;;;;;4.80;4.10;;;11.50;1.00;;;;;;5063040;28;20231;-55
2023/05/17 05:36:59;;;;;;;6.77;4.00;;;11.50;1.00;;;;;;5070650;28;20183;-56
2023/05/17 05:39:26;;;;;;;8.23;3.73;;;11.50;1.00;;;;;;5075142;28;20192;-54
2023/05/17 05:41:52;;;;;;;6.97;3.47;;;11.40;1.00;;;;;;5064538;28;20977;-55
2023/05/17 05:44:18;;;;;;;7.37;3.73;;;11.60;1.00;;;;;;5068078;28;20434;-54
2023/05/17 05:46:43;;;;;;;6.83;3.33;;;11.80;1.00;;;;;;5067738;28;20270;-54
2023/05/17 05:49:09;;;;;;;4.90;3.40;;;12.10;1.00;;;;;;5054445;28;20242;-56
2023/05/17 05:51:35;;;;;;;8.50;3.67;;;12.10;1.00;;;;;;5069505;28;20286;-55
2023/05/17 05:54:00;;;;;;;10.17;4.50;;;12.20;1.00;;;;;;5061734;28;20204;-55
2023/05/17 05:56:26;;;;;;;8.90;3.80;;;12.30;1.00;;;;;;5067255;28;20313;-55
2023/05/17 05:58:54;;;;;;;8.50;3.50;;;12.10;1.00;;;;;;5067647;28;20333;-55
2023/05/17 06:01:20;;;;;;;9.00;4.30;;;12.10;1.00;;;;;;5064409;28;20840;-55
2023/05/17 06:03:45;;;;;;;8.60;4.40;;;12.10;1.00;;;;;;5073566;28;20545;-55
2023/05/17 06:06:11;;;;;;;6.00;4.07;;;12.20;1.00;;;;;;5059781;28;20184;-55
2023/05/17 06:08:37;;;;;;;9.17;4.73;;;12.40;1.00;;;;;;5066153;28;20199;-55
2023/05/17 06:11:02;;;;;;;7.50;4.57;;;12.40;1.00;;;;;;5068938;28;20221;-55
2023/05/17 06:13:28;;;;;;;12.73;5.07;;;12.50;1.00;;;;;;5055707;28;20691;-54
2023/05/17 06:15:53;;;;;;;8.80;4.50;;;12.30;1.00;;;;;;5058075;28;20531;-54
2023/05/17 06:18:19;;;;;;;6.83;4.37;;;12.30;1.00;;;;;;5068482;28;20266;-55
2023/05/17 06:20:45;;;;;;;6.77;4.23;;;12.40;1.00;;;;;;5059808;28;20229;-54
2023/05/17 06:23:11;;;;;;;8.07;4.07;;;12.70;1.00;;;;;;5067243;28;20589;-55
2023/05/17 06:25:36;;;;;;;14.90;5.80;;;12.60;1.00;;;;;;5066946;28;21011;-56
2023/05/17 06:28:03;;;;;;;10.03;4.63;;;12.50;1.00;;;;;;5064915;28;20205;-54
2023/05/17 06:30:29;;;;;;;10.77;4.50;;;12.40;1.00;;;;;;5053260;28;20195;-55
2023/05/17 06:32:55;;;;;;;10.20;4.57;;;12.30;1.00;;;;;;5067552;28;20957;-55
2023/05/17 06:35:20;;;;;;;8.80;4.70;;;12.50;1.00;;;;;;5061595;28;20446;-56
2023/05/17 06:37:46;;;;;;;9.37;4.10;;;12.80;1.00;;;;;;5054230;28;20187;-55
2023/05/17 06:40:12;;;;;;;8.13;4.57;;;12.80;1.00;;;;;;5052978;28;20661;-54
2023/05/17 06:42:37;;;;;;;12.67;4.63;;;13.00;1.00;;;;;;5052504;28;20288;-54
2023/05/17 06:45:03;;;;;;;5.07;4.57;;;13.10;1.00;;;;;;5065781;28;20184;-56
2023/05/17 06:47:29;;;;;;;12.93;6.23;;;12.90;1.00;;;;;;5066949;28;20184;-56
2023/05/17 06:49:54;;;;;;;9.23;4.50;;;12.90;1.00;;;;;;5069794;28;20532;-56
2023/05/17 06:52:20;;;;;;;11.30;4.70;;;13.00;1.00;;;;;;5070644;28;20223;-54
2023/05/17 06:54:46;;;;;;;9.03;4.60;;;13.10;1.00;;;;;;5067993;28;20207;-54
2023/05/17 06:57:11;;;;;;;7.93;4.77;;;13.30;1.00;;;;;;5081670;28;20294;-54
2023/05/17 06:59:37;;;;;;;9.60;4.90;;;13.60;1.00;;;;;;5067242;28;20196;-56
2023/05/17 07:02:03;;;;;;;6.77;4.57;;;13.80;1.00;;;;;;5078822;28;20677;-55
2023/05/17 07:04:29;;;;;;;14.17;5.70;;;13.60;1.00;;;;;;5070871;28;20244;-56
2023/05/17 07:06:55;;;;;;;7.63;4.63;;;13.50;1.00;;;;;;5069953;28;20203;-55
2023/05/17 07:09:20;;;;;;;11.40;5.20;;;13.70;1.00;;;;;;5070399;28;20455;-55
2023/05/17 07:11:47;;;;;;;11.47;4.50;;;13.90;1.00;;;;;;5067665;28;20568;-55
2023/05/17 07:14:12;;;;;;;6.93;4.47;;;13.90;1.00;;;;;;5066900;28;20704;-56
2023/05/17 07:16:38;;;;;;;16.10;5.27;;;14.30;1.00;;;;;;5063868;28;20434;-57
2023/05/17 07:19:04;;;;;;;9.43;3.87;;;14.90;99.90;;;;;;5078565;28;20205;-55
2023/05/17 07:21:30;;;;;;;8.83;4.93;;;15.30;99.90;;;;;;5064868;28;20284;-52
2023/05/17 07:23:56;;;;;;;11.70;5.77;;;15.70;99.90;;;;;;5065671;28;20196;-54
2023/05/17 07:26:22;;;;;;;8.27;4.53;;;15.10;99.90;;;;;;5064279;28;20441;-54
2023/05/17 07:28:47;;;;;;;9.83;4.97;;;14.60;99.90;;;;;;5067129;28;20188;-52
2023/05/17 07:31:13;;;;;;;8.90;5.60;;;14.30;99.90;;;;;;5067635;28;20187;-55
2023/05/17 07:33:39;;;;;;;15.40;4.97;;;14.30;99.90;;;;;;5079437;28;20285;-54
2023/05/17 07:36:05;;;;;;;10.87;4.97;;;14.10;99.90;;;;;;5075280;28;20470;-54
2023/05/17 07:38:34;;;;;;;11.90;4.87;;;13.80;99.90;;;;;;5068535;28;20546;-56
2023/05/17 07:41:00;;;;;;;8.20;4.87;;;13.70;99.90;;;;;;5073056;28;21040;-57
2023/05/17 07:43:25;;;;;;;7.03;5.10;;;13.80;99.90;;;;;;5068978;28;20450;-56
2023/05/17 07:45:51;;;;;;;10.47;5.17;;;13.60;99.90;;;;;;5075433;28;20469;-56
2023/05/17 07:48:17;;;;;;;8.97;5.20;;;13.60;99.90;;;;;;5068433;28;20648;-54
2023/05/17 07:50:43;;;;;;;9.40;4.70;;;13.40;99.90;;;;;;5076154;28;20195;-55
2023/05/17 07:53:09;;;;;;;8.40;4.33;;;13.60;99.90;;;;;;5066412;28;20234;-57
2023/05/17 07:55:35;;;;;;;10.20;4.70;;;13.70;99.90;;;;;;5067755;28;20529;-55
2023/05/17 07:58:00;;;;;;;8.90;4.17;;;14.00;99.90;;;;;;5064587;28;20482;-55
2023/05/17 08:00:26;;;;;;;9.67;5.03;;;14.20;99.90;;;;;;5067138;28;20728;-55
2023/05/17 08:02:52;;;;;;;9.73;4.00;;;14.30;99.90;;;;;;5061153;28;20191;-55
2023/05/17 08:05:18;;;;;;;10.57;4.23;;;14.40;99.90;;;;;;5063971;28;20636;-54
2023/05/17 08:07:43;;;;;;;9.97;5.03;;;14.60;99.90;;;;;;5073858;28;20540;-56
2023/05/17 08:10:09;;;;;;;9.37;4.73;;;15.00;99.90;;;;;;5063620;28;20188;-58
2023/05/17 08:12:35;;;;;;;12.10;4.50;;;14.90;99.90;;;;;;5082826;28;20190;-55
2023/05/17 08:15:01;;;;;;;7.80;4.30;;;14.80;99.90;;;;;;5074092;28;20480;-55
2023/05/17 08:17:26;;;;;;;6.33;3.50;;;14.70;99.90;;;;;;5066300;28;20187;-55
2023/05/17 08:19:52;;;;;;;7.63;4.33;;;14.70;99.90;;;;;;5078694;28;20635;-55
2023/05/17 08:22:18;;;;;;;11.70;3.60;;;14.70;99.90;;;;;;5085194;28;20190;-56
2023/05/17 08:24:44;;;;;;;6.80;3.97;;;14.70;99.90;;;;;;5071515;28;20222;-55
2023/05/17 08:27:10;;;;;;;8.50;3.63;;;14.70;99.90;;;;;;5071056;28;20656;-55
2023/05/17 08:29:36;;;;;;;8.77;3.90;;;14.60;99.90;;;;;;5076945;28;20202;-55
2023/05/17 08:32:02;;;;;;;6.13;3.33;;;14.90;99.90;;;;;;5079193;28;20445;-57
2023/05/17 08:34:27;;;;;;;5.37;4.00;;;15.30;99.90;;;;;;5074338;28;20557;-55
2023/05/17 08:36:53;;;;;;;8.37;3.10;;;15.70;99.90;;;;;;5069383;28;20451;-55
2023/05/17 08:39:20;;;;;;;11.43;3.43;;;15.90;99.90;;;;;;5064583;28;20291;-57
2023/05/17 08:41:49;;;;;;;6.97;2.77;;;15.70;99.90;;;;;;5072001;28;20277;-56
2023/05/17 08:44:16;;;;;;;6.07;3.27;;;15.50;99.90;;;;;;5084365;28;20437;-56
2023/05/17 08:46:43;;;;;;;11.07;2.80;;;15.40;99.90;;;;;;5070737;28;20445;-56
2023/05/17 08:49:11;;;;;;;9.43;3.70;;;15.60;99.90;;;;;;5083534;28;20452;-57
2023/05/17 08:51:38;;;;;;;14.73;3.50;;;15.50;99.90;;;;;;5073974;28;20866;-54
2023/05/17 08:54:04;;;;;;;9.63;3.20;;;15.80;99.90;;;;;;5083750;28;20954;-54
2023/05/17 08:56:31;;;;;;;8.40;3.30;;;15.70;99.90;;;;;;5077928;28;20549;-55
2023/05/17 08:58:57;;;;;;;7.43;3.83;;;15.50;99.90;;;;;;5080349;28;20441;-55
2023/05/17 09:01:23;;;;;;;6.40;3.00;;;15.30;99.90;;;;;;5075285;28;20529;-55
2023/05/17 09:03:49;;;;;;;7.97;3.23;;;14.80;99.90;;;;;;5083740;28;20531;-56
2023/05/17 09:06:17;;;;;;;10.27;4.00;;;14.20;99.90;;;;;;5071223;28;20533;-55
2023/05/17 09:08:43;;;;;;;8.63;3.93;;;14.10;99.90;;;;;;5075404;28;20180;-57
2023/05/17 09:11:09;;;;;;;9.23;4.03;;;14.10;99.90;;;;;;5073058;28;20460;-55
2023/05/17 09:13:36;;;;;;;8.47;3.93;;;14.40;99.90;;;;;;5075290;28;20548;-56
2023/05/17 09:16:01;;;;;;;7.43;3.50;;;15.10;99.90;;;;;;5069286;28;20454;-55
2023/05/17 09:18:31;;;;;;;9.07;3.77;;;15.40;99.90;;;;;;5072276;28;20445;-55
2023/05/17 09:21:03;;;;;;;5.73;3.20;;;15.60;99.90;;;;;;5084466;28;20230;-56
2023/05/17 09:23:33;;;;;;;5.73;3.43;;;15.90;99.90;;;;;;5073320;28;20473;-56
2023/05/17 09:26:09;;;;;;;9.97;4.33;;;15.70;99.90;;;;;;5083723;28;20510;-55
2023/05/17 09:28:40;;;;;;;9.53;3.97;;;15.60;99.90;;;;;;5074396;28;20560;-54
2023/05/17 09:31:12;;;;;;;10.90;3.97;;;15.60;99.90;;;;;;5073532;28;20517;-57
2023/05/17 09:33:48;;;;;;;5.90;3.80;;;15.60;99.90;;;;;;5076810;28;20465;-55
2023/05/17 09:36:19;;;;;;;8.00;5.07;;;15.20;99.90;;;;;;5067477;28;20438;-55
2023/05/17 09:39:00;;;;;;;7.53;4.50;;;15.20;99.90;;;;;;5068874;28;21217;-56
2023/05/17 09:41:27;;;;;;;5.90;3.70;;;15.20;99.90;;;;;;5081062;28;20437;-55
2023/05/17 09:43:56;;;;;;;5.90;4.30;;;15.40;99.90;;;;;;5071676;28;20454;-56
2023/05/17 09:46:22;;;;;;;9.17;4.43;;;15.70;99.90;;;;;;5069938;28;20482;-58
2023/05/17 09:48:53;;;;;;;8.77;4.33;;;15.70;99.90;;;;;;5081225;28;20477;-55
2023/05/17 09:51:29;;;;;;;6.17;3.67;;;15.60;99.90;;;;;;5069051;28;20622;-56
2023/05/17 09:53:58;;;;;;;10.30;4.40;;;15.20;99.90;;;;;;5065573;28;21016;-55
2023/05/17 09:56:27;;;;;;;12.30;4.03;;;14.90;99.90;;;;;;5076906;28;20548;-57
2023/05/17 09:58:53;;;;;;;7.97;3.63;;;14.40;99.90;;;;;;5076740;28;20966;-55
2023/05/17 10:01:20;;;;;;;13.47;3.77;;;14.10;99.90;;;;;;5074140;28;20477;-57
2023/05/17 10:03:45;;;;;;;9.30;4.03;;;14.10;99.90;;;;;;5072727;28;20458;-56
2023/05/17 10:06:14;;;;;;;6.67;3.50;;;14.10;99.90;;;;;;5073918;28;20452;-58
2023/05/17 10:08:43;;;;;;;9.50;3.33;;;14.40;99.90;;;;;;5075754;28;20188;-56
2023/05/17 10:11:10;;;;;;;8.03;3.30;;;14.80;99.90;;;;;;5066647;28;20448;-56
2023/05/17 10:13:52;;;;;;;10.40;3.53;;;15.30;99.90;;;;;;5066592;28;20469;-59
2023/05/17 10:16:21;;;;;;;9.43;4.33;;;15.60;99.90;;;;;;5082301;28;20442;-57
2023/05/17 10:18:48;;;;;;;9.57;4.23;;;15.40;99.90;;;;;;5076129;28;20433;-56
2023/05/17 10:21:15;;;;;;;8.70;3.77;;;15.30;99.90;;;;;;5066032;28;20454;-58
2023/05/17 10:23:43;;;;;;;12.57;4.50;;;15.30;99.90;;;;;;5072715;28;20901;-57
2023/05/17 10:26:09;;;;;;;11.30;4.40;;;15.20;99.90;;;;;;5076499;28;20458;-56
2023/05/17 10:28:36;;;;;;;5.47;3.40;;;15.30;99.90;;;;;;5078829;28;20445;-57
2023/05/17 10:31:06;;;;;;;5.73;3.30;;;15.60;99.90;;;;;;5080623;28;20459;-55
2023/05/17 10:33:32;;;;;;;5.20;3.47;;;15.50;99.90;;;;;;5080815;28;20483;-54
2023/05/17 10:35:58;;;;;;;7.23;3.33;;;15.20;99.90;;;;;;5068949;28;20438;-56
2023/05/17 10:38:26;;;;;;;9.77;3.63;;;15.00;99.90;;;;;;5078142;28;20996;-62
2023/05/17 10:40:53;;;;;;;6.43;3.10;;;14.60;99.90;;;;;;5081384;28;20443;-56
2023/05/17 10:43:20;;;;;;;7.90;3.13;;;14.70;99.90;;;;;;5084329;28;20457;-56
2023/05/17 10:45:46;;;;;;;5.10;2.60;;;14.80;99.90;;;;;;5070171;28;20535;-55
2023/05/17 10:48:15;;;;;;;8.20;3.40;;;15.60;99.90;;;;;;5084708;28;20764;-57
2023/05/17 10:50:46;;;;;;;8.20;2.97;;;16.60;99.90;;;;;;5081657;28;20179;-55
2023/05/17 10:53:12;;;;;;;11.73;3.97;;;16.50;99.90;;;;;;5072572;28;20453;-56
2023/05/17 10:55:42;;;;;;;10.23;2.97;;;16.10;99.90;;;;;;5069320;28;20450;-56
2023/05/17 10:58:16;;;;;;;6.80;2.40;;;15.70;99.90;;;;;;5071944;28;20568;-57
2023/05/17 11:00:50;;;;;;;8.03;3.37;;;15.60;99.90;;;;;;5075895;28;20447;-55
2023/05/17 11:03:24;;;;;;;9.33;3.33;;;15.50;99.90;;;;;;5075461;28;20757;-56
2023/05/17 11:06:08;;;;;;;8.30;2.87;;;15.60;99.90;;;;;;5074573;28;20440;-56
2023/05/17 11:08:35;;;;;;;7.53;3.10;;;15.90;99.90;;;;;;5079334;28;20428;-58
2023/05/17 11:11:17;;;;;;;5.23;3.17;;;16.10;99.90;;;;;;5070537;28;20454;-57
2023/05/17 11:13:44;;;;;;;3.83;2.90;;;16.40;99.90;;;;;;5079298;28;20439;-56
2023/05/17 11:16:15;;;;;;;8.53;2.70;;;17.20;99.90;;;;;;5066758;28;20607;-57
2023/05/17 11:18:51;;;;;;;6.50;3.40;;;17.20;99.90;;;;;;5074229;28;20421;-57
2023/05/17 11:21:18;;;;;;;9.93;3.17;;;17.10;99.90;;;;;;5075609;28;20420;-57
2023/05/17 11:23:45;;;;;;;4.20;2.20;;;16.90;99.90;;;;;;5080968;28;20441;-55
2023/05/17 11:26:16;;;;;;;8.33;3.10;;;16.70;99.90;;;;;;5078766;28;20460;-56
2023/05/17 11:28:41;;;;;;;7.80;3.33;;;16.50;99.90;;;;;;5078347;28;20456;-57
2023/05/17 11:31:07;;;;;;;5.50;2.93;;;16.40;99.90;;;;;;5074795;28;21038;-55
2023/05/17 11:33:44;;;;;;;10.70;2.93;;;16.20;99.90;;;;;;5075744;28;20210;-57
2023/05/17 11:36:28;;;;;;;7.23;2.97;;;16.50;99.90;;;;;;5069973;28;20194;-56
2023/05/17 11:39:13;;;;;;;5.10;2.40;;;16.80;99.90;;;;;;5075327;28;20541;-55
2023/05/17 11:41:46;;;;;;;6.73;2.70;;;16.80;99.90;;;;;;5076231;28;20790;-56
2023/05/17 11:44:12;;;;;;;7.20;2.97;;;16.70;99.90;;;;;;5073031;28;20540;-57
2023/05/17 11:46:40;;;;;;;7.30;3.03;;;16.70;99.90;;;;;;5083826;28;20997;-57
2023/05/17 11:49:06;;;;;;;6.77;2.70;;;17.10;99.90;;;;;;5078202;28;20523;-55
2023/05/17 11:51:32;;;;;;;8.10;2.90;;;17.00;99.90;;;;;;5076515;28;20992;-57
2023/05/17 11:54:02;;;;;;;5.90;2.50;;;16.60;99.90;;;;;;5080976;28;20500;-56
2023/05/17 11:56:35;;;;;;;5.53;3.00;;;16.40;99.90;;;;;;5063103;28;20465;-56
2023/05/17 11:59:01;;;;;;;7.87;2.47;;;16.40;99.90;;;;;;5069579;28;20434;-56
2023/05/17 12:01:27;;;;;;;4.30;2.67;;;16.50;99.90;;;;;;5080732;28;20821;-55
2023/05/17 12:03:58;;;;;;;3.47;2.17;;;16.70;99.90;;;;;;5071602;28;20484;-56
2023/05/17 12:06:24;;;;;;;7.80;2.47;;;16.80;99.90;;;;;;5073878;28;20276;-55
2023/05/17 12:08:50;;;;;;;7.60;2.37;;;17.00;99.90;;;;;;5075204;28;20531;-55
2023/05/17 12:11:16;;;;;;;5.63;2.33;;;16.50;99.90;;;;;;5077141;28;20441;-56
2023/05/17 12:13:45;;;;;;;3.97;2.30;;;16.40;99.90;;;;;;5085287;28;20210;-58
2023/05/17 12:16:13;;;;;;;7.63;2.63;;;16.50;99.90;;;;;;5072556;28;20992;-55
2023/05/17 12:18:39;;;;;;;6.30;2.23;;;17.00;99.90;;;;;;5077883;28;20438;-55
2023/05/17 12:21:06;;;;;;;4.43;2.40;;;16.80;99.90;;;;;;5069493;28;20438;-56
2023/05/17 12:23:41;;;;;;;9.93;2.50;;;17.20;99.90;;;;;;5076202;28;20449;-55
2023/05/17 12:26:29;;;;;;;4.20;2.40;;;17.30;99.90;;;;;;5080814;28;20755;-56
2023/05/17 12:28:57;;;;;;;6.77;2.40;;;17.40;99.90;;;;;;5075979;28;20529;-55
2023/05/17 12:31:53;;;;;;;6.80;2.70;;;17.30;99.90;;;;;;5074203;28;20934;-56
2023/05/17 12:34:19;;;;;;;5.57;2.23;;;17.00;99.90;;;;;;5070738;28;20913;-57
2023/05/17 12:36:45;;;;;;;6.80;3.17;;;16.90;99.90;;;;;;5077554;28;20454;-57
2023/05/17 12:39:12;;;;;;;5.17;2.40;;;17.00;99.90;;;;;;5082564;28;20504;-56
2023/05/17 12:41:39;;;;;;;13.10;3.07;;;17.20;99.90;;;;;;5059286;28;20950;-56
2023/05/17 12:44:07;;;;;;;3.47;2.30;;;17.50;99.90;;;;;;5060902;28;20825;-55
2023/05/17 12:46:33;;;;;;;5.30;2.30;;;17.50;99.90;;;;;;5073190;28;20540;-55
2023/05/17 12:49:07;;;;;;;7.10;2.23;;;17.60;99.90;;;;;;5076005;28;20434;-56
2023/05/17 12:51:43;;;;;;;3.13;2.00;;;17.30;99.90;;;;;;5067801;28;20437;-56
2023/05/17 12:54:25;;;;;;;4.53;2.17;;;17.20;99.90;;;;;;5065557;28;20469;-56
2023/05/17 12:56:51;;;;;;;4.30;2.37;;;17.40;99.90;;;;;;5069196;28;20474;-57